createdAt,value
2019-05-03T00:00:08.937Z,99.99
2019-05-03T00:01:08.915Z,99.99
2019-05-03T00:02:08.894Z,99.99
2019-05-03T00:03:08.870Z,99.99
2019-05-03T00:04:08.851Z,99.99
2019-05-03T00:05:08.833Z,99.99
2019-05-03T00:06:08.803Z,99.99
2019-05-03T00:07:08.782Z,99.99
2019-05-03T00:08:08.772Z,99.99
2019-05-03T00:09:08.741Z,99.99
2019-05-03T00:11:08.694Z,99.99
2019-05-03T00:12:08.670Z,99.99
2019-05-03T00:13:08.648Z,99.99
2019-05-03T00:14:08.626Z,99.99
2019-05-03T00:15:08.604Z,99.99
2019-05-03T00:16:08.589Z,99.99
2019-05-03T00:17:08.560Z,99.99
2019-05-03T00:18:08.549Z,99.99
2019-05-03T00:19:08.516Z,99.99
2019-05-03T00:20:08.504Z,99.99
2019-05-03T00:21:08.471Z,99.99
2019-05-03T00:22:08.448Z,99.99
2019-05-03T00:23:08.427Z,99.99
2019-05-03T00:24:08.403Z,99.99
2019-05-03T00:25:08.580Z,99.99
2019-05-03T00:26:08.360Z,99.99
2019-05-03T00:27:08.346Z,99.99
2019-05-03T00:28:08.312Z,99.99
2019-05-03T00:29:08.291Z,99.99
2019-05-03T00:30:08.272Z,99.99
2019-05-03T00:31:08.254Z,99.99
2019-05-03T00:32:08.225Z,99.99
2019-05-03T00:33:08.203Z,99.99
2019-05-03T00:34:08.180Z,99.99
2019-05-03T00:35:08.160Z,99.99
2019-05-03T00:36:08.134Z,99.99
2019-05-03T00:37:08.112Z,99.99
2019-05-03T00:38:08.088Z,99.99
2019-05-03T00:39:08.066Z,99.99
2019-05-03T00:40:08.049Z,99.99
2019-05-03T00:41:08.029Z,99.99
2019-05-03T00:42:08.000Z,99.99
2019-05-03T00:43:07.978Z,99.99
2019-05-03T00:44:07.953Z,99.99
2019-05-03T00:45:07.932Z,99.99
2019-05-03T00:46:07.912Z,99.99
2019-05-03T00:47:07.891Z,99.99
2019-05-03T00:48:07.873Z,99.99
2019-05-03T00:49:07.843Z,99.99
2019-05-03T00:50:07.833Z,99.99
2019-05-03T00:51:07.799Z,99.99
2019-05-03T00:52:07.773Z,99.99
2019-05-03T00:53:07.752Z,99.99
2019-05-03T00:54:07.733Z,99.99
2019-05-03T00:55:16.204Z,99.99
2019-05-03T00:56:07.685Z,99.99
2019-05-03T00:57:07.667Z,99.99
2019-05-03T00:58:07.639Z,99.99
2019-05-03T00:59:07.617Z,99.99
2019-05-03T01:00:07.595Z,99.99
2019-05-03T01:01:07.574Z,99.99
2019-05-03T01:02:07.560Z,99.99
2019-05-03T01:03:07.741Z,99.99
2019-05-03T01:04:07.836Z,99.99
2019-05-03T01:05:07.483Z,99.99
2019-05-03T01:06:07.466Z,99.99
2019-05-03T01:07:07.437Z,99.99
2019-05-03T01:08:07.415Z,99.99
2019-05-03T01:09:07.399Z,99.99
2019-05-03T01:10:07.371Z,99.99
2019-05-03T01:11:07.349Z,99.99
2019-05-03T01:12:07.326Z,99.99
2019-05-03T01:13:07.304Z,99.99
2019-05-03T01:14:07.284Z,99.99
2019-05-03T01:15:07.259Z,99.99
2019-05-03T01:16:07.234Z,99.99
2019-05-03T01:17:07.211Z,99.99
2019-05-03T01:18:07.192Z,99.99
2019-05-03T01:19:07.169Z,99.99
2019-05-03T01:20:07.154Z,99.99
2019-05-03T01:21:07.130Z,99.99
2019-05-03T01:22:07.101Z,99.99
2019-05-03T01:23:07.077Z,99.99
2019-05-03T01:24:07.056Z,99.99
2019-05-03T01:25:07.034Z,99.99
2019-05-03T01:26:07.010Z,99.99
2019-05-03T01:27:06.989Z,99.99
2019-05-03T01:28:06.966Z,99.99
2019-05-03T01:29:06.965Z,99.99
2019-05-03T01:30:06.921Z,99.99
2019-05-03T01:31:06.911Z,99.99
2019-05-03T01:32:06.876Z,99.99
2019-05-03T01:33:06.854Z,99.99
2019-05-03T01:34:06.832Z,99.99
2019-05-03T01:35:06.808Z,99.99
2019-05-03T01:36:06.785Z,99.99
2019-05-03T01:37:06.764Z,99.99
2019-05-03T01:38:06.743Z,99.99
2019-05-03T01:39:06.730Z,99.99
2019-05-03T01:40:06.693Z,99.99
2019-05-03T01:41:06.672Z,99.99
2019-05-03T01:42:06.654Z,99.99
2019-05-03T01:43:06.635Z,99.99
2019-05-03T01:44:06.608Z,99.99
2019-05-03T01:45:06.587Z,99.99
2019-05-03T01:46:06.563Z,99.99
2019-05-03T01:47:06.538Z,99.99
2019-05-03T01:48:06.520Z,99.99
2019-05-03T01:49:06.492Z,99.99
2019-05-03T01:50:06.470Z,99.99
2019-05-03T01:51:06.452Z,99.99
2019-05-03T01:52:06.423Z,99.99
2019-05-03T01:53:06.403Z,99.99
2019-05-03T01:54:06.378Z,99.99
2019-05-03T01:55:06.360Z,99.99
2019-05-03T01:56:06.334Z,99.99
2019-05-03T01:57:06.312Z,99.99
2019-05-03T01:58:06.291Z,99.99
2019-05-03T01:59:06.267Z,99.99
2019-05-03T02:00:06.254Z,99.99
2019-05-03T02:01:06.225Z,99.99
2019-05-03T02:02:07.455Z,99.99
2019-05-03T02:03:06.177Z,99.99
2019-05-03T02:04:06.154Z,99.99
2019-05-03T02:05:06.134Z,99.99
2019-05-03T02:06:06.111Z,99.99
2019-05-03T02:07:06.091Z,99.99
2019-05-03T02:08:06.066Z,99.99
2019-05-03T02:09:06.044Z,99.99
2019-05-03T02:10:06.021Z,99.99
2019-05-03T02:11:05.999Z,99.99
2019-05-03T02:12:05.978Z,99.99
2019-05-03T02:13:05.953Z,99.99
2019-05-03T02:14:05.937Z,99.99
2019-05-03T02:15:05.909Z,99.99
2019-05-03T02:16:06.108Z,99.99
2019-05-03T02:17:05.864Z,99.99
2019-05-03T02:18:05.841Z,99.99
2019-05-03T02:19:05.819Z,99.99
2019-05-03T02:20:05.795Z,99.99
2019-05-03T02:21:05.772Z,99.99
2019-05-03T02:22:05.750Z,99.99
2019-05-03T02:23:05.728Z,99.99
2019-05-03T02:24:05.705Z,99.99
2019-05-03T02:25:05.684Z,99.99
2019-05-03T02:26:05.661Z,99.99
2019-05-03T02:27:05.645Z,99.99
2019-05-03T02:28:05.613Z,99.99
2019-05-03T02:29:05.593Z,99.99
2019-05-03T02:30:05.581Z,99.99
2019-05-03T02:31:05.877Z,99.99
2019-05-03T02:32:05.528Z,99.99
2019-05-03T02:33:05.505Z,99.99
2019-05-03T02:34:05.482Z,99.99
2019-05-03T02:35:05.478Z,99.99
2019-05-03T02:36:05.442Z,99.99
2019-05-03T02:37:05.423Z,99.99
2019-05-03T02:38:05.394Z,99.99
2019-05-03T02:39:05.376Z,99.99
2019-05-03T02:40:05.354Z,99.99
2019-05-03T02:41:05.326Z,99.99
2019-05-03T02:42:10.284Z,99.99
2019-05-03T02:43:05.632Z,99.99
2019-05-03T02:44:06.307Z,99.99
2019-05-03T02:45:06.088Z,99.99
2019-05-03T02:46:06.002Z,99.99
2019-05-03T02:47:05.696Z,99.99
2019-05-03T02:48:06.040Z,99.99
2019-05-03T02:49:06.460Z,99.99
2019-05-03T02:50:05.879Z,99.99
2019-05-03T02:51:06.537Z,99.99
2019-05-03T02:52:06.637Z,99.99
2019-05-03T02:53:05.786Z,99.99
2019-05-03T02:54:05.664Z,99.99
2019-05-03T02:55:06.091Z,99.99
2019-05-03T02:56:15.032Z,99.99
2019-05-03T02:57:06.313Z,99.99
2019-05-03T02:58:05.749Z,99.99
2019-05-03T02:59:06.184Z,99.99
2019-05-03T03:00:05.183Z,99.99
2019-05-03T03:01:06.471Z,99.99
2019-05-03T03:02:06.354Z,99.99
2019-05-03T03:03:05.537Z,99.99
2019-05-03T03:04:05.400Z,99.99
2019-05-03T03:05:05.790Z,99.99
2019-05-03T03:06:06.742Z,99.99
2019-05-03T03:07:05.680Z,99.99
2019-05-03T03:08:05.954Z,99.99
2019-05-03T03:09:05.427Z,99.99
2019-05-03T03:10:05.429Z,99.99
2019-05-03T03:11:06.270Z,99.99
2019-05-03T03:12:06.069Z,99.99
2019-05-03T03:13:05.895Z,99.99
2019-05-03T03:14:05.829Z,99.99
2019-05-03T03:15:06.246Z,99.99
2019-05-03T03:16:06.674Z,99.99
2019-05-03T03:17:06.673Z,99.99
2019-05-03T03:18:06.291Z,99.99
2019-05-03T03:19:06.730Z,99.99
2019-05-03T03:20:05.462Z,99.99
2019-05-03T03:21:05.831Z,99.99
2019-05-03T03:22:05.829Z,99.99
2019-05-03T03:23:06.121Z,99.99
2019-05-03T03:24:06.205Z,99.99
2019-05-03T03:25:05.396Z,99.99
2019-05-03T03:26:06.213Z,99.99
2019-05-03T03:27:05.380Z,99.99
2019-05-03T03:28:05.348Z,99.99
2019-05-03T03:29:05.682Z,99.99
2019-05-03T03:30:07.663Z,99.99
2019-05-03T03:31:08.187Z,99.99
2019-05-03T03:32:08.766Z,99.99
2019-05-03T03:33:08.153Z,99.99
2019-05-03T03:34:08.171Z,99.99
2019-05-03T03:35:11.359Z,99.99
2019-05-03T03:46:05.376Z,99.99
2019-05-03T03:47:05.343Z,99.99
2019-05-03T03:48:05.202Z,99.99
2019-05-03T03:49:06.848Z,99.99
2019-05-03T03:50:05.919Z,99.99
2019-05-03T03:51:05.157Z,99.99
2019-05-03T03:52:06.141Z,99.99
2019-05-03T03:53:06.522Z,99.99
2019-05-03T03:54:06.082Z,99.99
2019-05-03T03:55:06.469Z,99.99
2019-05-03T03:56:05.619Z,99.99
2019-05-03T03:57:07.638Z,99.99
2019-05-03T03:58:06.179Z,99.99
2019-05-03T03:59:05.781Z,99.99
2019-05-03T04:00:05.425Z,99.99
2019-05-03T04:01:05.883Z,99.99
2019-05-03T04:02:05.968Z,99.99
2019-05-03T04:03:05.888Z,99.99
2019-05-03T04:04:05.559Z,99.99
2019-05-03T04:05:05.568Z,99.99
2019-05-03T04:06:05.693Z,99.99
2019-05-03T04:07:06.221Z,99.99
2019-05-03T04:08:05.719Z,99.99
2019-05-03T04:09:05.194Z,99.99
2019-05-03T04:10:05.694Z,99.99
2019-05-03T04:11:06.063Z,99.99
2019-05-03T04:12:05.918Z,99.99
2019-05-03T04:13:05.471Z,99.99
2019-05-03T04:14:05.415Z,99.99
2019-05-03T04:15:05.737Z,99.99
2019-05-03T04:16:05.572Z,99.99
2019-05-03T04:17:05.868Z,99.99
2019-05-03T04:18:05.497Z,99.99
2019-05-03T04:19:05.751Z,99.99
2019-05-03T04:20:05.066Z,99.99
2019-05-03T04:21:05.400Z,99.99
2019-05-03T04:22:05.641Z,99.99
2019-05-03T04:23:05.302Z,99.99
2019-05-03T04:24:05.765Z,99.99
2019-05-03T04:25:05.782Z,99.99
2019-05-03T04:26:03.094Z,99.99
2019-05-03T04:27:15.569Z,99.99
2019-05-03T04:28:05.728Z,99.99
2019-05-03T04:29:05.426Z,99.99
2019-05-03T04:30:05.729Z,99.99
2019-05-03T04:31:02.968Z,99.99
2019-05-03T04:32:05.795Z,99.99
2019-05-03T04:33:05.710Z,99.99
2019-05-03T04:34:05.101Z,99.99
2019-05-03T04:35:05.264Z,99.99
2019-05-03T04:36:05.331Z,99.99
2019-05-03T04:37:05.277Z,99.99
2019-05-03T04:38:05.286Z,99.99
2019-05-03T04:39:05.239Z,99.99
2019-05-03T04:40:02.765Z,99.99
2019-05-03T04:41:05.603Z,99.99
2019-05-03T04:42:02.716Z,99.99
2019-05-03T04:43:02.693Z,99.99
2019-05-03T04:44:02.669Z,99.99
2019-05-03T04:45:05.655Z,99.99
2019-05-03T04:46:06.223Z,99.99
2019-05-03T04:47:02.605Z,99.99
2019-05-03T04:48:05.726Z,99.99
2019-05-03T04:49:05.535Z,99.99
2019-05-03T04:50:05.365Z,99.99
2019-05-03T04:51:02.518Z,99.99
2019-05-03T04:52:05.525Z,99.99
2019-05-03T04:53:05.521Z,99.99
2019-05-03T04:54:05.281Z,99.99
2019-05-03T04:55:02.423Z,99.88
2019-05-03T04:56:05.532Z,99.11
2019-05-03T04:57:02.588Z,99.16
2019-05-03T04:58:04.697Z,99.97
2019-05-03T04:59:02.330Z,99.78
2019-05-03T05:00:05.409Z,98.97
2019-05-03T05:01:02.283Z,99.78
2019-05-03T05:02:02.264Z,99.21
2019-05-03T05:03:02.237Z,99.26
2019-05-03T05:04:02.427Z,99.40
2019-05-03T05:05:02.201Z,98.50
2019-05-03T05:06:02.172Z,97.41
2019-05-03T05:07:02.167Z,97.69
2019-05-03T05:08:02.335Z,97.69
2019-05-03T05:09:02.100Z,98.12
2019-05-03T05:10:02.090Z,96.74
2019-05-03T05:11:02.060Z,96.45
2019-05-03T05:12:02.029Z,97.97
2019-05-03T05:13:02.008Z,97.22
2019-05-03T05:15:01.963Z,96.45
2019-05-03T05:16:01.938Z,96.79
2019-05-03T05:17:01.928Z,96.36
2019-05-03T05:18:01.894Z,96.41
2019-05-03T05:19:01.885Z,96.03
2019-05-03T05:20:01.850Z,95.41
2019-05-03T05:21:01.827Z,96.17
2019-05-03T05:22:05.340Z,96.84
2019-05-03T05:23:01.786Z,95.89
2019-05-03T05:24:01.758Z,97.31
2019-05-03T05:25:01.736Z,97.03
2019-05-03T05:26:01.712Z,97.83
2019-05-03T05:27:01.687Z,95.94
2019-05-03T05:28:01.665Z,96.89
2019-05-03T05:29:01.641Z,96.41
2019-05-03T05:30:01.623Z,95.84
2019-05-03T05:31:01.600Z,94.98
2019-05-03T05:32:01.581Z,94.03
2019-05-03T05:33:01.554Z,95.08
2019-05-03T05:34:01.528Z,93.70
2019-05-03T05:35:01.504Z,94.13
2019-05-03T05:36:01.483Z,93.79
2019-05-03T05:37:01.466Z,92.94
2019-05-03T05:38:01.438Z,93.79
2019-05-03T05:39:01.412Z,93.84
2019-05-03T05:40:01.395Z,94.22
2019-05-03T05:41:01.371Z,92.99
2019-05-03T05:42:01.346Z,93.70
2019-05-03T05:43:01.331Z,93.04
2019-05-03T05:44:01.307Z,93.70
2019-05-03T05:45:01.276Z,94.79
2019-05-03T05:46:01.261Z,94.42
2019-05-03T05:47:01.231Z,94.22
2019-05-03T05:48:01.207Z,93.65
2019-05-03T05:49:01.191Z,92.80
2019-05-03T05:50:01.165Z,91.23
2019-05-03T05:51:01.139Z,90.37
2019-05-03T05:52:01.327Z,90.85
2019-05-03T05:53:01.092Z,91.85
2019-05-03T05:54:01.075Z,90.47
2019-05-03T05:55:01.049Z,90.70
2019-05-03T05:56:01.024Z,92.03
2019-05-03T05:57:01.017Z,91.75
2019-05-03T05:58:04.702Z,91.56
2019-05-03T05:59:00.954Z,92.03
2019-05-03T06:00:00.935Z,91.85
2019-05-03T06:01:00.910Z,91.66
2019-05-03T06:02:00.885Z,92.13
2019-05-03T06:03:00.870Z,90.33
2019-05-03T06:04:00.844Z,89.28
2019-05-03T06:05:00.820Z,88.52
2019-05-03T06:06:00.802Z,88.61
2019-05-03T06:07:00.774Z,89.47
2019-05-03T06:08:00.751Z,87.09
2019-05-03T06:09:00.726Z,88.23
2019-05-03T06:10:00.705Z,87.85
2019-05-03T06:11:00.687Z,87.47
2019-05-03T06:12:00.658Z,87.38
2019-05-03T06:13:00.634Z,88.42
2019-05-03T06:14:00.612Z,88.13
2019-05-03T06:15:00.596Z,87.76
2019-05-03T06:16:00.566Z,87.09
2019-05-03T06:17:00.543Z,86.14
2019-05-03T06:18:00.523Z,85.76
2019-05-03T06:19:00.497Z,87.19
2019-05-03T06:20:00.613Z,86.94
2019-05-03T06:21:00.457Z,85.71
2019-05-03T06:22:00.431Z,85.71
2019-05-03T06:23:00.409Z,85.42
2019-05-03T06:24:00.382Z,85.14
2019-05-03T06:25:00.563Z,84.81
2019-05-03T06:26:00.608Z,85.80
2019-05-03T06:27:00.316Z,85.38
2019-05-03T06:28:00.299Z,85.33
2019-05-03T06:29:00.273Z,86.33
2019-05-03T06:30:00.245Z,86.28
2019-05-03T06:31:00.229Z,86.47
2019-05-03T06:32:00.200Z,84.91
2019-05-03T06:33:00.178Z,84.47
2019-05-03T06:34:00.158Z,83.39
2019-05-03T06:35:00.133Z,84.33
2019-05-03T06:36:00.110Z,84.52
2019-05-03T06:37:00.097Z,85.66
2019-05-03T06:38:00.068Z,85.38
2019-05-03T06:39:00.041Z,83.19
2019-05-03T06:40:00.026Z,82.71
2019-05-03T06:40:59.994Z,82.24
2019-05-03T06:42:00.303Z,82.05
2019-05-03T06:43:08.360Z,83.00
2019-05-03T06:43:59.929Z,82.81
2019-05-03T06:45:08.298Z,84.09
2019-05-03T06:45:59.882Z,83.04
2019-05-03T06:47:01.094Z,84.28
2019-05-03T06:47:59.871Z,82.00
2019-05-03T06:49:01.092Z,80.47
2019-05-03T06:49:59.791Z,82.48
2019-05-03T06:51:00.319Z,81.90
2019-05-03T06:52:00.064Z,81.24
2019-05-03T06:53:04.362Z,81.52
2019-05-03T06:53:59.703Z,81.71
2019-05-03T06:55:00.427Z,81.52
2019-05-03T06:55:59.657Z,81.24
2019-05-03T06:57:00.087Z,81.62
2019-05-03T06:57:59.611Z,82.28
2019-05-03T06:58:59.595Z,81.90
2019-05-03T06:59:59.564Z,81.90
2019-05-03T07:00:59.547Z,82.00
2019-05-03T07:01:59.529Z,81.14
2019-05-03T07:02:59.495Z,80.29
2019-05-03T07:03:59.473Z,80.86
2019-05-03T07:04:59.452Z,79.24
2019-05-03T07:05:59.772Z,77.43
2019-05-03T07:06:59.619Z,76.10
2019-05-03T07:07:59.394Z,77.81
2019-05-03T07:08:59.358Z,78.19
2019-05-03T07:09:59.336Z,78.19
2019-05-03T07:10:59.394Z,77.81
2019-05-03T07:11:59.293Z,77.24
2019-05-03T07:12:59.280Z,78.10
2019-05-03T07:13:59.247Z,79.14
2019-05-03T07:14:59.222Z,79.24
2019-05-03T07:15:59.207Z,79.91
2019-05-03T07:16:59.178Z,79.72
2019-05-03T07:17:59.169Z,79.24
2019-05-03T07:18:59.136Z,79.33
2019-05-03T07:19:59.272Z,80.10
2019-05-03T07:20:59.088Z,78.96
2019-05-03T07:21:59.072Z,79.33
2019-05-03T07:22:59.041Z,80.38
2019-05-03T07:23:59.024Z,79.52
2019-05-03T07:24:58.996Z,80.38
2019-05-03T07:25:58.985Z,80.10
2019-05-03T07:26:59.186Z,79.24
2019-05-03T07:27:58.932Z,78.67
2019-05-03T07:28:58.916Z,78.67
2019-05-03T07:29:58.893Z,79.52
2019-05-03T07:30:58.872Z,79.05
2019-05-03T07:31:58.840Z,78.86
2019-05-03T07:32:58.819Z,78.67
2019-05-03T07:33:58.794Z,80.00
2019-05-03T07:34:58.774Z,78.23
2019-05-03T07:35:58.749Z,76.67
2019-05-03T07:36:58.734Z,78.33
2019-05-03T07:37:58.722Z,78.99
2019-05-03T07:38:58.683Z,80.61
2019-05-03T07:39:58.989Z,77.81
2019-05-03T07:40:58.646Z,78.23
2019-05-03T07:41:58.617Z,76.39
2019-05-03T07:42:58.596Z,77.19
2019-05-03T07:43:58.569Z,78.61
2019-05-03T07:44:58.549Z,77.28
2019-05-03T07:45:58.530Z,77.85
2019-05-03T07:46:58.501Z,77.76
2019-05-03T07:47:58.489Z,77.19
2019-05-03T07:48:58.468Z,77.47
2019-05-03T07:49:58.754Z,77.37
2019-05-03T07:50:58.413Z,75.76
2019-05-03T07:51:58.392Z,73.95
2019-05-03T07:52:58.379Z,74.71
2019-05-03T07:53:58.349Z,74.80
2019-05-03T07:54:58.324Z,75.67
2019-05-03T07:55:58.302Z,75.76
2019-05-03T07:56:58.491Z,76.04
2019-05-03T07:57:58.257Z,74.62
2019-05-03T07:59:02.652Z,74.62
2019-05-03T07:59:58.294Z,75.19
2019-05-03T08:01:06.087Z,75.38
2019-05-03T08:01:58.175Z,75.09
2019-05-03T08:02:58.148Z,75.95
2019-05-03T08:03:58.124Z,76.37
2019-05-03T08:04:58.103Z,76.08
2019-05-03T08:05:58.088Z,76.84
2019-05-03T08:06:58.061Z,75.85
2019-05-03T08:07:58.039Z,74.90
2019-05-03T08:08:58.018Z,74.33
2019-05-03T08:09:57.993Z,74.62
2019-05-03T08:10:58.004Z,73.76
2019-05-03T08:11:57.949Z,74.24
2019-05-03T08:12:57.932Z,74.33
2019-05-03T08:13:57.901Z,75.67
2019-05-03T08:14:57.881Z,75.76
2019-05-03T08:15:57.861Z,76.52
2019-05-03T08:16:57.834Z,76.42
2019-05-03T08:17:57.814Z,75.57
2019-05-03T08:18:57.792Z,76.20
2019-05-03T08:19:58.092Z,76.42
2019-05-03T08:20:57.747Z,76.29
2019-05-03T08:21:57.727Z,76.14
2019-05-03T08:22:57.716Z,76.57
2019-05-03T08:23:57.681Z,75.24
2019-05-03T08:24:57.658Z,75.05
2019-05-03T08:25:57.639Z,74.67
2019-05-03T08:26:57.615Z,74.77
2019-05-03T08:27:57.588Z,74.87
2019-05-03T08:28:57.572Z,74.80
2019-05-03T08:29:57.545Z,75.95
2019-05-03T08:30:57.523Z,74.43
2019-05-03T08:31:57.508Z,73.13
2019-05-03T08:32:57.480Z,70.65
2019-05-03T08:33:57.675Z,72.65
2019-05-03T08:34:57.441Z,70.94
2019-05-03T08:35:57.414Z,69.23
2019-05-03T08:36:57.388Z,68.75
2019-05-03T08:37:57.367Z,69.60
2019-05-03T08:38:57.673Z,68.84
2019-05-03T08:39:57.323Z,68.88
2019-05-03T08:40:57.304Z,67.83
2019-05-03T08:41:57.294Z,66.69
2019-05-03T08:42:57.260Z,67.83
2019-05-03T08:43:57.237Z,67.55
2019-05-03T08:44:57.217Z,67.70
2019-05-03T08:45:57.521Z,67.89
2019-05-03T08:46:57.170Z,69.04
2019-05-03T08:47:57.147Z,69.13
2019-05-03T08:48:57.129Z,67.80
2019-05-03T08:49:57.113Z,66.27
2019-05-03T08:50:57.081Z,66.66
2019-05-03T08:51:57.065Z,67.32
2019-05-03T08:52:57.041Z,67.32
2019-05-03T08:53:57.017Z,67.89
2019-05-03T08:54:56.995Z,66.40
2019-05-03T08:55:56.972Z,66.69
2019-05-03T08:56:56.950Z,66.69
2019-05-03T08:57:56.928Z,65.55
2019-05-03T08:58:56.906Z,65.26
2019-05-03T08:59:56.886Z,63.92
2019-05-03T09:00:56.876Z,62.49
2019-05-03T09:01:56.849Z,63.07
2019-05-03T09:02:56.824Z,62.49
2019-05-03T09:03:56.798Z,62.72
2019-05-03T09:04:56.804Z,61.48
2019-05-03T09:05:56.757Z,62.68
2019-05-03T09:06:56.732Z,63.17
2019-05-03T09:07:56.710Z,61.83
2019-05-03T09:08:57.334Z,62.59
2019-05-03T09:09:56.668Z,62.65
2019-05-03T09:10:56.660Z,63.89
2019-05-03T09:11:56.624Z,64.65
2019-05-03T09:12:56.604Z,64.37
2019-05-03T09:13:56.585Z,64.56
2019-05-03T09:14:56.562Z,65.23
2019-05-03T09:15:56.591Z,67.03
2019-05-03T09:16:56.518Z,65.70
2019-05-03T09:17:56.501Z,66.08
2019-05-03T09:18:56.474Z,66.66
2019-05-03T09:19:56.451Z,66.85
2019-05-03T09:20:56.441Z,67.03
2019-05-03T09:21:56.409Z,66.85
2019-05-03T09:22:56.385Z,67.51
2019-05-03T09:23:56.374Z,66.75
2019-05-03T09:24:56.343Z,66.59
2019-05-03T09:25:56.321Z,66.69
2019-05-03T09:26:56.299Z,66.88
2019-05-03T09:27:56.278Z,67.22
2019-05-03T09:28:56.255Z,66.37
2019-05-03T09:29:56.308Z,66.97
2019-05-03T09:30:56.212Z,66.59
2019-05-03T09:31:56.194Z,65.55
2019-05-03T09:32:56.183Z,65.92
2019-05-03T09:33:56.148Z,64.97
2019-05-03T09:34:56.121Z,64.40
2019-05-03T09:35:56.100Z,63.20
2019-05-03T09:36:56.081Z,63.29
2019-05-03T09:37:56.063Z,62.78
2019-05-03T09:38:56.041Z,62.30
2019-05-03T09:39:56.017Z,62.30
2019-05-03T09:40:55.994Z,61.83
2019-05-03T09:41:55.976Z,62.68
2019-05-03T09:42:55.949Z,62.40
2019-05-03T09:43:55.932Z,62.02
2019-05-03T09:44:55.910Z,62.97
2019-05-03T09:45:55.886Z,62.97
2019-05-03T09:46:55.877Z,62.49
2019-05-03T09:47:55.843Z,63.17
2019-05-03T09:49:09.466Z,63.35
2019-05-03T09:49:56.029Z,63.26
2019-05-03T09:50:55.809Z,63.45
2019-05-03T09:51:55.759Z,63.17
2019-05-03T09:52:55.737Z,63.76
2019-05-03T09:53:55.718Z,62.81
2019-05-03T09:54:55.691Z,63.48
2019-05-03T09:55:55.725Z,62.05
2019-05-03T09:56:58.424Z,61.76
2019-05-03T09:57:55.657Z,61.48
2019-05-03T09:58:55.802Z,59.38
2019-05-03T09:59:59.702Z,59.57
2019-05-03T10:00:55.646Z,59.28
2019-05-03T10:01:55.551Z,59.28
2019-05-03T10:02:55.525Z,60.30
2019-05-03T10:03:55.498Z,60.78
2019-05-03T10:04:55.563Z,62.21
2019-05-03T10:05:55.528Z,61.83
2019-05-03T10:06:55.433Z,62.30
2019-05-03T10:07:55.420Z,62.49
2019-05-03T10:08:55.402Z,63.26
2019-05-03T10:09:55.495Z,63.92
2019-05-03T10:10:55.356Z,63.54
2019-05-03T10:11:55.427Z,64.02
2019-05-03T10:12:55.623Z,63.54
2019-05-03T10:13:56.445Z,63.92
2019-05-03T10:14:55.260Z,64.59
2019-05-03T10:15:55.240Z,63.26
2019-05-03T10:16:55.430Z,63.86
2019-05-03T10:17:55.529Z,64.43
2019-05-03T10:18:55.342Z,63.29
2019-05-03T10:19:55.153Z,62.91
2019-05-03T10:20:56.144Z,63.48
2019-05-03T10:21:55.118Z,62.52
2019-05-03T10:22:55.101Z,62.65
2019-05-03T10:23:55.067Z,61.04
2019-05-03T10:24:55.061Z,59.79
2019-05-03T10:25:55.259Z,58.46
2019-05-03T10:26:55.284Z,57.60
2019-05-03T10:27:55.138Z,57.60
2019-05-03T10:28:55.351Z,57.03
2019-05-03T10:30:09.100Z,57.50
2019-05-03T10:30:54.918Z,59.03
2019-05-03T10:31:54.898Z,57.70
2019-05-03T10:32:54.877Z,57.98
2019-05-03T10:33:54.858Z,58.84
2019-05-03T10:34:54.839Z,57.89
2019-05-03T10:35:54.820Z,58.36
2019-05-03T10:36:54.930Z,57.19
2019-05-03T10:37:54.985Z,56.24
2019-05-03T10:38:55.415Z,55.95
2019-05-03T10:39:55.968Z,56.14
2019-05-03T10:40:55.062Z,56.87
2019-05-03T10:41:55.031Z,58.97
2019-05-03T10:42:55.261Z,59.45
2019-05-03T10:43:55.637Z,59.83
2019-05-03T10:44:55.555Z,60.02
2019-05-03T10:45:55.783Z,59.45
2019-05-03T10:46:55.903Z,60.40
2019-05-03T10:47:54.566Z,60.30
2019-05-03T10:48:55.824Z,61.25
2019-05-03T10:49:55.010Z,61.38
2019-05-03T10:50:56.402Z,60.30
2019-05-03T10:51:54.913Z,60.69
2019-05-03T10:52:55.523Z,62.05
2019-05-03T10:53:54.806Z,61.57
2019-05-03T10:54:55.865Z,61.57
2019-05-03T10:55:55.650Z,61.29
2019-05-03T10:56:55.929Z,61.67
2019-05-03T10:57:54.340Z,60.24
2019-05-03T10:58:55.005Z,59.60
2019-05-03T10:59:55.504Z,59.67
2019-05-03T11:00:56.704Z,60.84
2019-05-03T11:01:54.582Z,61.04
2019-05-03T11:02:55.067Z,59.31
2019-05-03T11:03:54.561Z,58.65
2019-05-03T11:04:54.922Z,58.07
2019-05-03T11:05:54.844Z,59.22
2019-05-03T11:06:55.101Z,59.03
2019-05-03T11:07:55.601Z,59.12
2019-05-03T11:08:54.649Z,57.89
2019-05-03T11:09:55.114Z,57.43
2019-05-03T11:10:54.974Z,57.53
2019-05-03T11:11:55.482Z,56.96
2019-05-03T11:12:54.793Z,58.01
2019-05-03T11:13:54.003Z,56.29
2019-05-03T11:14:53.985Z,56.93
2019-05-03T11:15:54.910Z,56.65
2019-05-03T11:16:55.294Z,57.50
2019-05-03T11:17:54.904Z,58.84
2019-05-03T11:18:54.900Z,59.22
2019-05-03T11:19:54.746Z,59.12
2019-05-03T11:20:54.589Z,58.55
2019-05-03T11:21:54.734Z,58.46
2019-05-03T11:22:54.805Z,59.22
2019-05-03T11:23:54.552Z,59.19
2019-05-03T11:24:54.671Z,59.86
2019-05-03T11:25:55.446Z,59.09
2019-05-03T11:26:55.757Z,59.38
2019-05-03T11:27:55.192Z,60.05
2019-05-03T11:28:59.208Z,60.05
2019-05-03T11:29:55.487Z,60.05
2019-05-03T11:30:59.835Z,61.19
2019-05-03T11:31:55.100Z,62.15
2019-05-03T11:32:55.536Z,61.86
2019-05-03T11:33:55.288Z,61.29
2019-05-03T11:34:55.375Z,60.81
2019-05-03T11:35:55.256Z,61.19
2019-05-03T11:36:54.929Z,61.38
2019-05-03T11:37:53.497Z,60.27
2019-05-03T11:38:53.482Z,59.51
2019-05-03T11:39:53.453Z,60.94
2019-05-03T11:40:55.813Z,60.94
2019-05-03T11:41:53.424Z,59.99
2019-05-03T11:42:55.259Z,59.60
2019-05-03T11:43:53.387Z,58.36
2019-05-03T11:44:53.362Z,57.70
2019-05-03T11:45:55.287Z,59.31
2019-05-03T11:46:55.111Z,57.98
2019-05-03T11:47:55.083Z,57.76
2019-05-03T11:48:54.836Z,58.33
2019-05-03T11:49:54.681Z,59.31
2019-05-03T11:50:54.611Z,59.79
2019-05-03T11:51:55.472Z,59.89
2019-05-03T11:52:55.342Z,60.17
2019-05-03T11:53:53.164Z,59.31
2019-05-03T11:54:55.190Z,59.51
2019-05-03T11:55:55.211Z,59.60
2019-05-03T11:56:53.092Z,59.31
2019-05-03T11:57:53.088Z,59.12
2019-05-03T11:58:54.893Z,59.79
2019-05-03T11:59:54.764Z,58.94
2019-05-03T12:01:08.639Z,59.22
2019-05-03T12:01:52.989Z,59.31
2019-05-03T12:02:52.965Z,60.08
2019-05-03T12:03:52.945Z,60.55
2019-05-03T12:04:55.108Z,60.05
2019-05-03T12:05:55.108Z,59.48
2019-05-03T12:06:54.942Z,59.76
2019-05-03T12:07:54.774Z,60.55
2019-05-03T12:08:52.849Z,60.65
2019-05-03T12:09:54.587Z,60.52
2019-05-03T12:11:00.645Z,59.00
2019-05-03T12:11:52.777Z,58.43
2019-05-03T12:12:52.758Z,59.00
2019-05-03T12:14:02.397Z,59.38
2019-05-03T12:14:54.798Z,60.62
2019-05-03T12:15:52.692Z,59.86
2019-05-03T12:17:14.318Z,60.14
2019-05-03T12:17:56.329Z,59.51
2019-05-03T12:18:54.343Z,59.22
2019-05-03T12:19:54.305Z,62.46
2019-05-03T12:20:53.018Z,59.89
2019-05-03T12:21:53.182Z,60.36
2019-05-03T12:22:53.097Z,59.22
2019-05-03T12:23:53.162Z,58.46
2019-05-03T12:24:53.171Z,57.89
2019-05-03T12:25:52.982Z,56.65
2019-05-03T12:26:52.456Z,57.03
2019-05-03T12:27:52.441Z,57.22
2019-05-03T12:28:52.415Z,56.74
2019-05-03T12:29:52.552Z,57.50
2019-05-03T12:30:52.374Z,58.26
2019-05-03T12:31:54.654Z,59.51
2019-05-03T12:32:54.502Z,59.12
2019-05-03T12:33:52.312Z,58.48
2019-05-03T12:34:52.294Z,58.77
2019-05-03T12:35:52.274Z,58.01
2019-05-03T12:36:52.248Z,58.11
2019-05-03T12:37:52.228Z,56.32
2019-05-03T12:38:54.629Z,54.29
2019-05-03T12:39:52.190Z,54.29
2019-05-03T12:40:52.163Z,55.34
2019-05-03T12:41:52.146Z,55.02
2019-05-03T12:42:52.125Z,55.31
2019-05-03T12:43:52.102Z,56.07
2019-05-03T12:44:52.083Z,56.65
2019-05-03T12:45:52.058Z,56.26
2019-05-03T12:46:52.037Z,56.17
2019-05-03T12:47:52.016Z,55.79
2019-05-03T12:48:51.995Z,56.36
2019-05-03T12:49:51.976Z,56.84
2019-05-03T12:50:52.290Z,56.55
2019-05-03T12:51:51.970Z,56.48
2019-05-03T12:52:51.912Z,58.39
2019-05-03T12:53:51.890Z,58.23
2019-05-03T12:54:51.872Z,57.28
2019-05-03T12:55:51.849Z,56.48
2019-05-03T12:56:51.826Z,56.70
2019-05-03T12:57:51.807Z,55.94
2019-05-03T12:58:51.785Z,56.41
2019-05-03T12:59:51.773Z,57.28
2019-05-03T13:00:51.751Z,58.14
2019-05-03T13:01:51.763Z,58.51
2019-05-03T13:02:51.705Z,56.51
2019-05-03T13:03:51.681Z,57.09